createdAt,value
2024-02-06T00:02:08.226Z,13.18
2024-02-06T00:05:26.733Z,13.06
2024-02-06T00:08:29.810Z,13.06
2024-02-06T00:11:49.268Z,13.13
2024-02-06T00:14:52.309Z,13.17
2024-02-06T00:17:54.627Z,13.32
2024-02-06T00:21:10.865Z,13.33
2024-02-06T00:24:13.755Z,13.43
2024-02-06T00:27:16.042Z,13.38
2024-02-06T00:30:18.369Z,13.54
2024-02-06T00:33:20.551Z,13.45
2024-02-06T00:36:22.741Z,13.31
2024-02-06T00:39:24.972Z,13.15
2024-02-06T00:42:27.130Z,13.09
2024-02-06T00:45:29.284Z,13.21
2024-02-06T00:48:31.774Z,13.10
2024-02-06T00:51:34.080Z,13.03
2024-02-06T00:54:36.229Z,13.16
2024-02-06T00:57:38.400Z,13.22
2024-02-06T01:01:05.628Z,13.36
2024-02-06T01:04:07.974Z,13.17
2024-02-06T01:07:10.393Z,13.16
2024-02-06T01:10:12.640Z,13.30
2024-02-06T01:13:14.825Z,13.28
2024-02-06T01:16:17.102Z,13.37
2024-02-06T01:19:31.520Z,13.36
2024-02-06T01:22:33.982Z,13.24
2024-02-06T01:25:36.285Z,13.25
2024-02-06T01:28:38.762Z,13.17
2024-02-06T01:31:41.143Z,13.09
2024-02-06T01:34:43.489Z,13.12
2024-02-06T01:37:45.651Z,12.99
2024-02-06T01:40:47.793Z,13.10
2024-02-06T01:43:50.024Z,13.18
2024-02-06T01:46:53.273Z,13.24
2024-02-06T01:49:56.931Z,12.95
2024-02-06T01:52:59.136Z,13.08
2024-02-06T01:56:01.313Z,13.11
2024-02-06T01:59:03.964Z,12.95
2024-02-06T02:02:06.256Z,12.78
2024-02-06T02:05:09.258Z,12.12
2024-02-06T02:08:11.785Z,12.26
2024-02-06T02:11:13.924Z,12.24
2024-02-06T02:14:16.125Z,12.29
2024-02-06T02:17:18.659Z,12.51
2024-02-06T02:20:20.878Z,12.61
2024-02-06T02:23:29.096Z,12.79
2024-02-06T02:26:32.117Z,13.04
2024-02-06T02:29:34.287Z,12.56
2024-02-06T02:32:36.548Z,11.83
2024-02-06T02:35:39.091Z,11.65
2024-02-06T02:38:48.588Z,11.66
2024-02-06T02:41:52.492Z,11.79
2024-02-06T02:44:54.594Z,11.76
2024-02-06T02:47:56.811Z,11.56
2024-02-06T02:50:58.965Z,11.58
2024-02-06T02:54:01.155Z,11.35
2024-02-06T02:57:03.329Z,11.15
2024-02-06T03:00:08.120Z,11.08
2024-02-06T03:03:10.554Z,11.00
2024-02-06T03:06:22.298Z,10.97
2024-02-06T03:09:24.509Z,11.15
2024-02-06T03:12:33.001Z,11.34
2024-02-06T03:19:09.447Z,11.32
2024-02-06T03:25:36.174Z,10.58
2024-02-06T03:28:38.452Z,10.52
2024-02-06T03:31:40.727Z,10.71
2024-02-06T03:34:43.081Z,10.79
2024-02-06T03:37:45.291Z,10.85
2024-02-06T03:40:47.550Z,10.89
2024-02-06T03:43:50.262Z,11.32
2024-02-06T03:46:52.438Z,11.52
2024-02-06T03:49:54.670Z,11.73
2024-02-06T03:52:56.804Z,12.01
2024-02-06T03:55:58.978Z,12.03
2024-02-06T03:59:01.218Z,11.95
2024-02-06T04:02:04.886Z,12.31
2024-02-06T04:05:07.402Z,12.34
2024-02-06T04:08:09.557Z,12.56
2024-02-06T04:11:12.572Z,12.80
2024-02-06T04:14:14.747Z,12.84
2024-02-06T04:17:16.853Z,13.04
2024-02-06T04:20:19.057Z,12.71
2024-02-06T04:23:21.472Z,12.94
2024-02-06T04:26:23.615Z,13.19
2024-02-06T04:29:25.702Z,13.12
2024-02-06T04:32:27.900Z,13.20
2024-02-06T04:35:30.096Z,13.34
2024-02-06T04:38:32.952Z,13.25
2024-02-06T04:41:38.239Z,12.73
2024-02-06T04:44:40.398Z,12.38
2024-02-06T04:47:42.638Z,12.03
2024-02-06T04:50:44.781Z,11.88
2024-02-06T04:53:46.938Z,11.28
2024-02-06T04:56:49.510Z,10.57
2024-02-06T04:59:51.964Z,10.60
2024-02-06T05:02:54.200Z,10.83
2024-02-06T05:05:56.387Z,10.99
2024-02-06T05:08:58.604Z,11.30
2024-02-06T05:12:03.452Z,11.05
2024-02-06T05:15:05.885Z,10.22
2024-02-06T05:18:08.524Z,10.25
2024-02-06T05:21:10.744Z,9.77
2024-02-06T05:24:12.905Z,9.94
2024-02-06T05:27:15.699Z,10.10
2024-02-06T05:30:17.917Z,10.05
2024-02-06T05:33:20.168Z,9.82
2024-02-06T05:36:22.651Z,9.48
2024-02-06T05:39:25.266Z,9.43
2024-02-06T05:42:27.444Z,9.61
2024-02-06T05:45:29.679Z,9.53
2024-02-06T05:48:31.855Z,9.57
2024-02-06T05:51:33.998Z,9.55
2024-02-06T05:54:36.082Z,9.83
2024-02-06T05:57:38.358Z,9.97
2024-02-06T06:00:40.316Z,9.42
2024-02-06T06:03:42.306Z,9.46
2024-02-06T06:06:46.461Z,9.07
2024-02-06T06:09:48.342Z,8.86
2024-02-06T06:12:50.294Z,8.93
2024-02-06T06:15:52.426Z,9.11
2024-02-06T06:18:54.838Z,9.23
2024-02-06T06:21:57.086Z,8.84
2024-02-06T06:24:59.005Z,9.56
2024-02-06T06:28:01.155Z,9.41
2024-02-06T06:31:03.609Z,9.66
2024-02-06T06:34:08.665Z,9.60
2024-02-06T06:37:10.823Z,9.25
2024-02-06T06:40:13.352Z,9.53
2024-02-06T06:43:15.466Z,9.07
2024-02-06T06:46:17.529Z,9.55
2024-02-06T06:49:19.650Z,9.93
2024-02-06T06:52:21.830Z,9.77
2024-02-06T06:55:23.834Z,10.07
2024-02-06T06:58:25.838Z,11.12
2024-02-06T07:01:28.102Z,10.17
2024-02-06T07:04:30.439Z,10.69
2024-02-06T07:07:34.041Z,11.19
2024-02-06T07:10:36.004Z,10.72
2024-02-06T07:13:38.198Z,10.92
2024-02-06T07:16:41.275Z,10.80
2024-02-06T07:19:43.495Z,10.68
2024-02-06T07:22:45.588Z,11.46
2024-02-06T07:25:47.761Z,10.98
2024-02-06T07:28:49.816Z,10.48
2024-02-06T07:31:51.984Z,10.87
2024-02-06T07:34:54.399Z,12.07
2024-02-06T07:37:56.327Z,11.20
2024-02-06T07:41:00.038Z,11.06
2024-02-06T07:44:02.464Z,11.64
2024-02-06T07:47:04.433Z,11.34
2024-02-06T07:50:06.699Z,10.83
2024-02-06T07:53:08.631Z,10.46
2024-02-06T07:56:13.538Z,10.57
2024-02-06T07:59:17.495Z,10.29
2024-02-06T08:02:19.578Z,10.38
2024-02-06T08:05:21.671Z,10.54
2024-02-06T08:08:23.770Z,10.50
2024-02-06T08:11:26.135Z,10.64
2024-02-06T08:14:28.091Z,10.54
2024-02-06T08:17:30.092Z,10.50
2024-02-06T08:20:32.751Z,10.38
2024-02-06T08:23:34.783Z,10.67
2024-02-06T08:26:36.758Z,10.60
2024-02-06T08:29:44.189Z,10.53
2024-02-06T08:32:46.227Z,10.55
2024-02-06T08:35:53.851Z,10.71
2024-02-06T08:38:56.007Z,10.93
2024-02-06T08:41:57.897Z,11.45
2024-02-06T08:44:59.807Z,11.58
2024-02-06T08:48:04.238Z,11.75
2024-02-06T08:51:06.319Z,11.53
2024-02-06T08:54:08.224Z,12.59
2024-02-06T08:57:10.251Z,13.00
2024-02-06T09:00:13.267Z,12.34
2024-02-06T09:03:15.338Z,13.07
2024-02-06T09:06:17.597Z,12.64
2024-02-06T09:09:22.559Z,13.12
2024-02-06T09:12:25.920Z,12.79
2024-02-06T09:15:30.229Z,12.74
2024-02-06T09:18:32.495Z,13.32
2024-02-06T09:21:34.744Z,13.59
2024-02-06T09:24:36.653Z,13.59
2024-02-06T09:27:42.553Z,13.20
2024-02-06T09:30:46.113Z,13.60
2024-02-06T09:33:48.045Z,13.58
2024-02-06T09:36:50.345Z,14.28
2024-02-06T09:39:52.260Z,14.99
2024-02-06T09:42:54.451Z,13.84
2024-02-06T09:45:56.769Z,14.00
2024-02-06T09:48:58.843Z,14.36
2024-02-06T09:52:00.856Z,14.34
2024-02-06T09:55:06.587Z,14.27
2024-02-06T09:58:09.032Z,14.69
2024-02-06T10:01:14.177Z,15.03
2024-02-06T10:04:17.541Z,15.05
2024-02-06T10:07:20.724Z,15.94
2024-02-06T10:10:23.281Z,16.00
2024-02-06T10:13:25.349Z,16.12
2024-02-06T10:16:27.543Z,15.19
2024-02-06T10:19:35.907Z,14.76
2024-02-06T10:22:38.478Z,16.26
2024-02-06T10:25:40.646Z,15.95
2024-02-06T10:28:42.934Z,15.93
2024-02-06T10:31:45.090Z,15.39
2024-02-06T10:34:48.730Z,16.24
2024-02-06T10:37:51.073Z,17.55
2024-02-06T10:43:55.843Z,21.79
2024-02-06T10:47:06.557Z,23.78
2024-02-06T10:50:09.400Z,25.33
2024-02-06T10:53:11.603Z,26.97
2024-02-06T10:56:14.740Z,25.98
2024-02-06T10:59:17.084Z,25.05
2024-02-06T11:02:26.874Z,25.86
2024-02-06T11:05:31.722Z,26.43
2024-02-06T11:08:33.646Z,27.38
2024-02-06T11:11:35.905Z,26.72
2024-02-06T11:14:38.370Z,24.97
2024-02-06T11:17:40.420Z,25.38
2024-02-06T11:20:42.639Z,24.75
2024-02-06T11:23:44.603Z,23.48
2024-02-06T11:26:46.509Z,24.86
2024-02-06T11:29:48.438Z,24.29
2024-02-06T11:33:00.567Z,25.30
2024-02-06T11:36:11.620Z,24.84
2024-02-06T11:39:13.791Z,25.76
2024-02-06T11:42:23.211Z,23.74
2024-02-06T11:45:25.168Z,23.95
2024-02-06T11:48:27.641Z,25.75
2024-02-06T11:51:30.084Z,25.41
2024-02-06T11:54:32.171Z,24.41
2024-02-06T11:57:34.143Z,24.93
2024-02-06T12:00:37.491Z,22.17
2024-02-06T12:03:39.515Z,21.21
2024-02-06T12:06:42.427Z,22.75
2024-02-06T12:09:44.432Z,24.29
2024-02-06T12:12:46.466Z,25.61
2024-02-06T12:15:48.427Z,25.75
2024-02-06T12:18:51.839Z,23.49
2024-02-06T12:22:01.154Z,26.27
2024-02-06T12:25:03.663Z,26.10
2024-02-06T12:28:10.759Z,26.08
2024-02-06T12:31:14.811Z,23.69
2024-02-06T12:34:17.111Z,22.89
2024-02-06T12:37:19.140Z,23.51
2024-02-06T12:40:22.217Z,22.70
2024-02-06T12:43:24.555Z,25.01
2024-02-06T12:46:26.705Z,23.31
2024-02-06T12:49:31.228Z,24.46
2024-02-06T12:52:34.273Z,23.01
2024-02-06T12:55:41.274Z,23.24
2024-02-06T12:58:43.591Z,25.46
2024-02-06T13:01:45.628Z,23.94
2024-02-06T13:04:49.353Z,25.31
2024-02-06T13:07:51.664Z,24.23
2024-02-06T13:10:54.405Z,25.35
2024-02-06T13:13:56.553Z,24.69
2024-02-06T13:17:00.082Z,24.20
2024-02-06T13:20:06.989Z,24.69
2024-02-06T13:23:13.555Z,25.02
2024-02-06T13:26:15.466Z,27.12
2024-02-06T13:29:17.467Z,25.07
2024-02-06T13:32:19.644Z,23.94
2024-02-06T13:35:21.732Z,24.70
2024-02-06T13:38:24.545Z,26.98
2024-02-06T13:41:29.738Z,27.50
2024-02-06T13:44:31.779Z,26.09
2024-02-06T13:47:34.866Z,27.73
2024-02-06T13:50:36.958Z,26.05
2024-02-06T13:53:39.270Z,25.43
2024-02-06T13:56:43.137Z,27.23
2024-02-06T13:59:45.138Z,27.10
2024-02-06T14:02:47.832Z,24.97
2024-02-06T14:05:49.800Z,23.89
2024-02-06T14:08:53.074Z,23.48
2024-02-06T14:11:58.455Z,22.02
2024-02-06T14:15:00.688Z,21.15
2024-02-06T14:18:02.957Z,22.50
2024-02-06T14:21:05.013Z,21.71
2024-02-06T14:24:07.008Z,21.62
2024-02-06T14:27:09.059Z,21.58
2024-02-06T14:30:13.970Z,21.06
2024-02-06T14:33:16.871Z,20.68
2024-02-06T14:36:18.995Z,20.13
2024-02-06T14:39:21.315Z,19.72
2024-02-06T14:42:24.054Z,18.89
2024-02-06T14:45:39.583Z,19.20
2024-02-06T14:48:48.564Z,18.18
2024-02-06T14:51:52.759Z,18.51
2024-02-06T14:54:55.571Z,18.41
2024-02-06T14:57:57.829Z,17.84
2024-02-06T15:01:01.548Z,17.36
2024-02-06T15:04:08.195Z,16.99
2024-02-06T15:07:12.672Z,16.89
2024-02-06T15:10:15.947Z,16.81
2024-02-06T15:13:18.002Z,16.71
2024-02-06T15:16:20.578Z,17.00
2024-02-06T15:19:22.781Z,16.63
2024-02-06T15:22:25.110Z,16.82
2024-02-06T15:25:27.243Z,16.63
2024-02-06T15:28:29.246Z,16.79
2024-02-06T15:31:31.298Z,16.82
2024-02-06T15:34:33.369Z,16.55
2024-02-06T15:37:35.548Z,16.50
2024-02-06T15:40:37.856Z,16.39
2024-02-06T15:43:40.141Z,16.31
2024-02-06T15:46:42.572Z,16.45
2024-02-06T15:49:47.772Z,16.47
2024-02-06T15:52:49.909Z,15.78
2024-02-06T15:55:52.624Z,15.43
2024-02-06T15:58:54.949Z,15.77
2024-02-06T16:01:57.923Z,15.85
2024-02-06T16:05:00.461Z,15.29
2024-02-06T16:08:02.589Z,15.39
2024-02-06T16:11:05.220Z,15.12
2024-02-06T16:14:07.112Z,15.35
2024-02-06T16:17:09.316Z,15.26
2024-02-06T16:20:12.215Z,15.72
2024-02-06T16:23:14.386Z,14.75
2024-02-06T16:26:16.305Z,15.29
2024-02-06T16:29:18.220Z,15.06
2024-02-06T16:32:20.260Z,15.15
2024-02-06T16:35:22.479Z,14.83
2024-02-06T16:38:25.277Z,14.75
2024-02-06T16:41:31.040Z,14.65
2024-02-06T16:44:33.097Z,14.87
2024-02-06T16:47:35.142Z,14.66
2024-02-06T16:50:37.506Z,15.04
2024-02-06T16:53:39.516Z,14.31
2024-02-06T16:56:41.699Z,14.21
2024-02-06T16:59:43.801Z,14.60
2024-02-06T17:02:50.583Z,14.48
2024-02-06T17:05:53.251Z,14.74
2024-02-06T17:08:55.867Z,14.66
2024-02-06T17:11:58.190Z,14.16
2024-02-06T17:15:11.730Z,14.14
2024-02-06T17:18:14.192Z,14.48
2024-02-06T17:21:16.771Z,14.28
2024-02-06T17:24:18.946Z,14.47
2024-02-06T17:27:21.087Z,13.82
2024-02-06T17:30:23.392Z,14.22
2024-02-06T17:33:25.703Z,14.31
2024-02-06T17:36:28.135Z,14.65
2024-02-06T17:39:30.510Z,14.87
2024-02-06T17:42:34.690Z,14.17
2024-02-06T17:45:39.456Z,14.04
2024-02-06T17:48:41.569Z,13.98
2024-02-06T17:51:43.699Z,14.34
2024-02-06T17:54:46.073Z,13.75
2024-02-06T17:57:48.150Z,14.08
2024-02-06T18:00:52.904Z,14.31
2024-02-06T18:03:55.421Z,14.27
2024-02-06T18:06:57.815Z,14.27
2024-02-06T18:10:01.015Z,13.66
2024-02-06T18:13:08.125Z,13.54
2024-02-06T18:16:10.318Z,13.80
2024-02-06T18:19:12.635Z,13.40
2024-02-06T18:22:15.071Z,13.82
2024-02-06T18:25:17.306Z,13.88
2024-02-06T18:28:19.764Z,13.16
2024-02-06T18:31:22.158Z,13.13
2024-02-06T18:34:24.513Z,13.06
2024-02-06T18:37:26.827Z,13.50
2024-02-06T18:40:29.048Z,13.27
2024-02-06T18:47:12.709Z,12.74
2024-02-06T18:50:34.983Z,12.99
2024-02-06T18:54:18.670Z,12.79
2024-02-06T18:58:02.213Z,13.23
2024-02-06T19:01:28.641Z,13.05
2024-02-06T19:04:51.685Z,12.61
2024-02-06T19:08:03.303Z,12.84
2024-02-06T19:11:17.398Z,12.55
2024-02-06T19:14:26.547Z,12.88
2024-02-06T19:17:55.214Z,12.89
2024-02-06T19:25:01.075Z,12.73
2024-02-06T19:28:20.077Z,12.19
2024-02-06T19:31:34.555Z,11.95
2024-02-06T19:35:09.650Z,12.58
2024-02-06T19:38:28.549Z,12.55
2024-02-06T19:41:46.631Z,12.48
2024-02-06T19:45:18.552Z,12.67
2024-02-06T19:48:34.363Z,12.52
2024-02-06T19:51:57.592Z,12.13
2024-02-06T19:55:17.723Z,12.31
2024-02-06T19:58:40.364Z,12.48
2024-02-06T20:01:53.760Z,11.92
2024-02-06T20:05:21.699Z,11.80
2024-02-06T20:08:36.992Z,12.16
2024-02-06T20:11:56.476Z,12.57
2024-02-06T20:19:15.981Z,12.24
2024-02-06T20:22:30.779Z,12.22
2024-02-06T20:25:52.908Z,12.09
2024-02-06T20:29:18.433Z,12.45
2024-02-06T20:33:21.422Z,12.59
2024-02-06T20:37:03.966Z,12.11
2024-02-06T20:40:21.758Z,11.79
2024-02-06T20:46:54.299Z,11.47
2024-02-06T20:49:56.636Z,11.48
2024-02-06T20:52:58.875Z,11.46
2024-02-06T20:56:11.449Z,11.63
2024-02-06T20:59:13.995Z,11.06
2024-02-06T21:02:16.363Z,10.77
2024-02-06T21:05:18.568Z,11.24
2024-02-06T21:08:20.855Z,11.34
2024-02-06T21:11:22.945Z,11.39
2024-02-06T21:14:25.101Z,11.31
2024-02-06T21:17:30.522Z,10.96
2024-02-06T21:20:33.189Z,11.33
2024-02-06T21:23:36.639Z,11.00
2024-02-06T21:26:38.911Z,11.20
2024-02-06T21:29:41.543Z,10.89
2024-02-06T21:32:43.791Z,11.10
2024-02-06T21:35:46.010Z,11.38
2024-02-06T21:38:48.104Z,11.58
2024-02-06T21:41:50.290Z,11.22
2024-02-06T21:44:52.659Z,10.84
2024-02-06T21:47:54.838Z,11.13
2024-02-06T21:50:57.124Z,11.17
2024-02-06T21:53:59.268Z,10.93
2024-02-06T21:57:01.461Z,10.61
2024-02-06T22:00:03.937Z,11.29
2024-02-06T22:03:06.054Z,11.36
2024-02-06T22:06:08.330Z,10.55
2024-02-06T22:09:11.975Z,10.81
2024-02-06T22:12:14.886Z,10.62
2024-02-06T22:15:17.004Z,10.87
2024-02-06T22:18:19.257Z,10.97
2024-02-06T22:21:21.416Z,10.78
2024-02-06T22:24:26.195Z,11.10
2024-02-06T22:27:29.212Z,11.09
2024-02-06T22:30:31.371Z,11.08
2024-02-06T22:33:33.666Z,10.83
2024-02-06T22:36:40.159Z,11.04
2024-02-06T22:39:44.411Z,11.02
2024-02-06T22:42:46.603Z,11.14
2024-02-06T22:45:48.806Z,11.01
2024-02-06T22:48:50.980Z,11.38
2024-02-06T22:51:53.034Z,11.57
2024-02-06T22:54:55.235Z,11.31
2024-02-06T22:57:57.458Z,11.53
2024-02-06T23:00:59.734Z,11.62
2024-02-06T23:04:04.081Z,11.31
2024-02-06T23:07:06.495Z,11.58
2024-02-06T23:10:09.666Z,11.42
2024-02-06T23:13:11.957Z,11.63
2024-02-06T23:16:14.136Z,12.01
2024-02-06T23:19:16.370Z,11.27
2024-02-06T23:22:18.686Z,11.13
2024-02-06T23:25:20.933Z,12.03
2024-02-06T23:28:23.142Z,12.01
2024-02-06T23:31:26.154Z,12.27
2024-02-06T23:34:29.034Z,11.41
2024-02-06T23:37:31.179Z,11.56
2024-02-06T23:40:33.351Z,11.91
2024-02-06T23:43:35.861Z,11.42
2024-02-06T23:46:38.066Z,12.09
2024-02-06T23:49:41.171Z,11.99
2024-02-06T23:52:43.426Z,11.45
2024-02-06T23:55:45.934Z,12.08
2024-02-06T23:58:48.165Z,11.65
